Terminal Aerodrome Forecast
Issued by NWS

Home | Current Version | Previous Version | Text Only | Print | Product List | Glossary On
Versions: 1 2 3 4 5 6 7 8 9 10 11 12
932
FTUS44 KSJT 261145
TAFBBD
TAF
KBBD 261145Z 2612/2712 10003KT 6SM BR SCT015
     FM261300 11004KT P6SM OVC015
     FM261500 12005KT P6SM OVC025
     FM261800 10008KT P6SM BKN050
     FM262000 08008KT P6SM VCTS BKN050CB
     FM270300 08004KT P6SM BKN050
      AMD NOT SKED=

USA.gov is the U.S. government's official web portal to all federal, state and local government web resources and services.